createdAt,value
2019-05-22T00:00:32.194Z,23.37
2019-05-22T00:03:06.370Z,21.00
2019-05-22T00:05:38.134Z,22.80
2019-05-22T00:08:10.276Z,21.77
2019-05-22T00:10:41.594Z,20.80
2019-05-22T00:13:15.040Z,22.47
2019-05-22T00:15:48.433Z,20.87
2019-05-22T00:18:19.507Z,20.33
2019-05-22T00:20:50.119Z,20.67
2019-05-22T00:23:22.421Z,19.83
2019-05-22T00:25:54.417Z,20.30
2019-05-22T00:28:27.060Z,19.13
2019-05-22T00:30:59.163Z,19.93
2019-05-22T00:33:31.571Z,18.63
2019-05-22T00:36:02.299Z,20.90
2019-05-22T00:38:34.831Z,19.17
2019-05-22T00:41:10.136Z,20.87
2019-05-22T00:43:44.702Z,22.13
2019-05-22T00:46:20.645Z,19.23
2019-05-22T00:48:53.923Z,16.70
2019-05-22T00:51:44.634Z,12.97
2019-05-22T00:54:21.323Z,13.47
2019-05-22T00:57:11.561Z,12.83
2019-05-22T00:59:44.244Z,13.73
2019-05-22T01:02:18.807Z,20.03
2019-05-22T01:04:50.687Z,22.70
2019-05-22T01:07:30.289Z,18.70
2019-05-22T01:10:03.762Z,17.83
2019-05-22T01:12:42.484Z,20.53
2019-05-22T01:15:15.549Z,17.60
2019-05-22T01:17:47.634Z,17.80
2019-05-22T01:20:24.475Z,22.30
2019-05-22T01:22:58.323Z,20.43
2019-05-22T01:25:30.923Z,16.97
2019-05-22T01:28:02.064Z,17.47
2019-05-22T01:30:39.450Z,18.63
2019-05-22T01:33:14.235Z,22.80
2019-05-22T01:35:53.247Z,22.20
2019-05-22T01:38:25.865Z,16.30
2019-05-22T01:40:59.041Z,16.27
2019-05-22T01:43:30.024Z,19.03
2019-05-22T01:46:03.226Z,20.93
2019-05-22T01:48:38.291Z,19.53
2019-05-22T01:51:11.738Z,20.43
2019-05-22T01:53:43.850Z,20.67
2019-05-22T01:56:16.780Z,17.33
2019-05-22T01:58:47.668Z,17.20
2019-05-22T02:01:19.939Z,16.63
2019-05-22T02:03:54.365Z,17.70
2019-05-22T02:06:26.258Z,21.23
2019-05-22T02:09:11.103Z,15.97
2019-05-22T02:11:45.827Z,16.23
2019-05-22T02:14:17.940Z,16.93
2019-05-22T02:16:56.951Z,17.27
2019-05-22T02:19:24.583Z,14.87
2019-05-22T02:21:56.422Z,14.17
2019-05-22T02:24:28.739Z,13.70
2019-05-22T02:27:03.097Z,15.33
2019-05-22T02:29:36.032Z,22.87
2019-05-22T02:32:07.520Z,13.10
2019-05-22T02:34:39.056Z,13.90
2019-05-22T02:37:10.843Z,22.13
2019-05-22T02:39:42.928Z,29.50
2019-05-22T02:42:19.157Z,24.20
2019-05-22T02:44:51.340Z,23.30
2019-05-22T02:47:24.991Z,20.07
2019-05-22T02:49:58.139Z,20.07
2019-05-22T02:52:29.911Z,28.83
2019-05-22T02:55:00.454Z,27.80
2019-05-22T02:57:32.384Z,20.50
2019-05-22T03:00:03.898Z,22.50
2019-05-22T03:02:39.121Z,25.33
2019-05-22T03:05:11.670Z,23.93
2019-05-22T03:07:43.587Z,26.00
2019-05-22T03:10:18.568Z,22.77
2019-05-22T03:12:52.169Z,17.77
2019-05-22T03:15:25.825Z,24.30
2019-05-22T03:18:01.681Z,31.53
2019-05-22T03:20:33.927Z,26.50
2019-05-22T03:23:38.018Z,29.27
2019-05-22T03:26:10.423Z,27.67
2019-05-22T03:28:41.928Z,27.93
2019-05-22T03:31:13.687Z,27.75
2019-05-22T03:33:44.864Z,22.80
2019-05-22T03:36:22.350Z,24.23
2019-05-22T03:38:53.026Z,23.23
2019-05-22T03:41:23.999Z,20.63
2019-05-22T03:43:56.108Z,22.67
2019-05-22T03:46:38.929Z,21.60
2019-05-22T03:49:27.943Z,20.43
2019-05-22T03:51:44.128Z,24.17
2019-05-22T03:54:14.772Z,24.00
2019-05-22T03:56:45.584Z,24.93
2019-05-22T03:59:16.251Z,23.13
2019-05-22T04:01:46.811Z,23.27
2019-05-22T04:04:34.283Z,22.37
2019-05-22T04:07:06.850Z,23.03
2019-05-22T04:09:40.168Z,21.50
2019-05-22T04:12:11.589Z,18.97
2019-05-22T04:14:42.449Z,16.37
2019-05-22T04:17:14.672Z,15.43
2019-05-22T04:19:51.050Z,18.47
2019-05-22T04:22:20.010Z,16.33
2019-05-22T04:24:51.402Z,17.83
2019-05-22T04:27:22.615Z,16.67
2019-05-22T04:29:54.154Z,20.10
2019-05-22T04:32:31.588Z,20.40
2019-05-22T04:35:05.199Z,21.03
2019-05-22T04:37:37.302Z,22.93
2019-05-22T04:40:53.246Z,24.30
2019-05-22T04:43:32.555Z,20.90
2019-05-22T04:46:05.339Z,21.37
2019-05-22T04:48:37.857Z,21.17
2019-05-22T04:51:25.097Z,22.37
2019-05-22T04:53:59.314Z,20.33
2019-05-22T04:56:30.159Z,23.13
2019-05-22T04:59:02.010Z,21.07
2019-05-22T05:01:32.612Z,22.40
2019-05-22T05:04:04.059Z,21.50
2019-05-22T05:06:36.168Z,22.87
2019-05-22T05:09:13.067Z,22.67
2019-05-22T05:11:44.740Z,22.50
2019-05-22T05:14:15.291Z,20.77
2019-05-22T05:16:45.891Z,20.80
2019-05-22T05:19:16.527Z,21.87
2019-05-22T05:21:47.109Z,21.37
2019-05-22T05:24:17.587Z,19.40
2019-05-22T05:26:48.575Z,17.17
2019-05-22T05:29:32.339Z,17.33
2019-05-22T05:32:03.652Z,16.60
2019-05-22T05:35:05.513Z,15.80
2019-05-22T05:37:36.588Z,15.20
2019-05-22T05:40:38.052Z,14.20
2019-05-22T05:43:10.969Z,13.63
2019-05-22T05:45:43.009Z,13.57
2019-05-22T05:48:16.956Z,14.73
2019-05-22T05:51:23.205Z,14.93
2019-05-22T05:54:05.650Z,13.83
2019-05-22T05:56:37.305Z,13.30
2019-05-22T05:59:09.309Z,12.57
2019-05-22T06:01:45.822Z,11.10
2019-05-22T06:04:34.085Z,11.97
2019-05-22T06:07:18.234Z,12.77
2019-05-22T06:10:13.246Z,13.00
2019-05-22T06:12:45.191Z,12.00
2019-05-22T06:15:15.995Z,10.80
2019-05-22T06:18:30.483Z,11.33
2019-05-22T06:21:04.182Z,12.83
2019-05-22T06:24:15.326Z,10.47
2019-05-22T06:27:02.380Z,12.67
2019-05-22T06:29:42.936Z,9.67
2019-05-22T06:33:01.518Z,8.58
2019-05-22T06:35:36.167Z,11.08
2019-05-22T06:38:18.297Z,10.48
2019-05-22T06:40:49.000Z,9.33
2019-05-22T06:44:14.944Z,7.30
2019-05-22T06:46:47.460Z,8.30
2019-05-22T06:49:45.771Z,9.45
2019-05-22T06:52:17.090Z,7.53
2019-05-22T06:54:48.004Z,7.55
2019-05-22T06:57:20.804Z,7.53
2019-05-22T07:00:11.616Z,7.78
2019-05-22T07:02:26.047Z,9.70
2019-05-22T07:04:57.323Z,9.00
2019-05-22T07:07:29.214Z,7.12
2019-05-22T07:10:00.363Z,8.13
2019-05-22T07:12:32.999Z,8.35
2019-05-22T07:15:28.460Z,7.70
2019-05-22T07:17:59.499Z,20.12
2019-05-22T07:20:33.370Z,7.20
2019-05-22T07:23:06.189Z,11.85
2019-05-22T07:25:37.591Z,8.85
2019-05-22T07:28:09.592Z,7.67
2019-05-22T07:30:40.589Z,7.12
2019-05-22T07:33:12.299Z,7.15
2019-05-22T07:36:04.490Z,7.17
2019-05-22T07:38:17.482Z,7.80
2019-05-22T07:40:51.602Z,7.87
2019-05-22T07:43:23.603Z,9.28
2019-05-22T07:45:57.042Z,7.97
2019-05-22T07:48:28.965Z,5.62
2019-05-22T07:51:00.222Z,6.30
2019-05-22T07:53:30.862Z,9.03
2019-05-22T07:56:04.938Z,6.10
2019-05-22T07:58:36.161Z,8.53
2019-05-22T08:01:07.092Z,6.15
2019-05-22T08:03:40.583Z,10.80
2019-05-22T08:06:11.672Z,6.17
2019-05-22T08:08:44.483Z,8.10
2019-05-22T08:11:15.950Z,6.95
2019-05-22T08:13:47.203Z,7.72
2019-05-22T08:16:18.205Z,8.43
2019-05-22T08:18:48.869Z,7.95
2019-05-22T08:21:23.366Z,7.08
2019-05-22T08:23:54.561Z,6.58
2019-05-22T08:26:26.243Z,11.45
2019-05-22T08:29:00.203Z,7.00
2019-05-22T08:31:30.712Z,7.10
2019-05-22T08:34:01.646Z,7.05
2019-05-22T08:36:32.471Z,11.38
2019-05-22T08:39:03.867Z,6.30
2019-05-22T08:41:39.065Z,8.68
2019-05-22T08:44:16.913Z,12.88
2019-05-22T08:46:42.678Z,8.85
2019-05-22T08:49:13.857Z,9.70
2019-05-22T08:51:44.649Z,6.90
2019-05-22T08:54:15.494Z,7.20
2019-05-22T08:56:50.479Z,6.03
2019-05-22T08:59:22.075Z,7.22
2019-05-22T09:01:52.833Z,6.58
2019-05-22T09:04:23.324Z,8.23
2019-05-22T09:06:53.800Z,8.90
2019-05-22T09:09:26.532Z,8.05
2019-05-22T09:11:58.230Z,6.40
2019-05-22T09:14:28.899Z,9.03
2019-05-22T09:16:59.628Z,6.85
2019-05-22T09:19:30.099Z,7.72
2019-05-22T09:22:00.987Z,6.92
2019-05-22T09:24:33.468Z,6.75
2019-05-22T09:27:04.865Z,10.15
2019-05-22T09:29:35.496Z,7.15
2019-05-22T09:32:07.196Z,7.13
2019-05-22T09:34:38.309Z,6.75
2019-05-22T09:37:08.907Z,6.80
2019-05-22T09:39:39.429Z,7.25
2019-05-22T09:42:09.930Z,10.25
2019-05-22T09:44:40.827Z,8.25
2019-05-22T09:47:11.824Z,7.55
2019-05-22T09:49:42.799Z,6.62
2019-05-22T09:52:13.987Z,10.05
2019-05-22T09:54:44.771Z,7.65
2019-05-22T09:57:15.439Z,7.45
2019-05-22T09:59:45.957Z,8.33
2019-05-22T10:02:16.439Z,6.70
2019-05-22T10:04:47.871Z,6.08
2019-05-22T10:07:18.341Z,9.38
2019-05-22T10:09:49.037Z,9.20
2019-05-22T10:12:19.815Z,10.80
2019-05-22T10:14:50.415Z,9.60
2019-05-22T10:17:21.497Z,9.23
2019-05-22T10:19:52.377Z,11.50
2019-05-22T10:22:23.807Z,12.82
2019-05-22T10:25:13.883Z,13.28
2019-05-22T10:27:27.118Z,8.58
2019-05-22T10:29:58.871Z,10.23
2019-05-22T10:32:32.185Z,8.98
2019-05-22T10:35:03.116Z,9.10
2019-05-22T10:37:37.095Z,8.38
2019-05-22T10:40:07.934Z,6.67
2019-05-22T10:42:38.532Z,5.90
2019-05-22T10:45:09.218Z,8.33
2019-05-22T10:47:39.744Z,8.98
2019-05-22T10:50:10.478Z,7.08
2019-05-22T10:52:41.135Z,8.73
2019-05-22T10:55:13.133Z,8.35
2019-05-22T10:57:44.932Z,11.93
2019-05-22T11:00:18.359Z,7.15
2019-05-22T11:02:49.178Z,5.70
2019-05-22T11:05:21.467Z,7.75
2019-05-22T11:07:52.483Z,6.95
2019-05-22T11:10:25.025Z,6.67
2019-05-22T11:12:55.721Z,6.70
2019-05-22T11:15:26.884Z,7.25
2019-05-22T11:17:58.804Z,7.45
2019-05-22T11:20:30.872Z,10.95
2019-05-22T11:23:04.188Z,6.55
2019-05-22T11:25:35.034Z,4.10
2019-05-22T11:28:05.643Z,6.63
2019-05-22T11:30:36.707Z,9.53
2019-05-22T11:33:08.812Z,10.35
2019-05-22T11:35:39.879Z,11.35
2019-05-22T11:38:11.128Z,6.50
2019-05-22T11:40:42.271Z,5.10
2019-05-22T11:43:13.293Z,7.17
2019-05-22T11:45:45.307Z,9.15
2019-05-22T11:48:16.354Z,7.10
2019-05-22T11:50:47.052Z,4.28
2019-05-22T11:53:17.751Z,10.20
2019-05-22T11:55:48.361Z,6.62
2019-05-22T11:58:18.859Z,5.80
2019-05-22T12:00:49.948Z,7.08
2019-05-22T12:03:22.677Z,12.20
2019-05-22T12:05:54.826Z,7.90
2019-05-22T12:08:26.721Z,3.77
2019-05-22T12:10:57.706Z,5.65
2019-05-22T12:13:28.639Z,4.47
2019-05-22T12:16:00.613Z,6.60
2019-05-22T12:18:31.041Z,5.83
2019-05-22T12:21:02.943Z,6.55
2019-05-22T12:23:33.964Z,7.10
2019-05-22T12:26:04.959Z,4.22
2019-05-22T12:28:35.556Z,10.35
2019-05-22T12:31:06.227Z,6.58
2019-05-22T12:33:36.655Z,8.63
2019-05-22T12:36:09.723Z,6.55
2019-05-22T12:38:40.535Z,7.30
2019-05-22T12:41:13.063Z,6.55
2019-05-22T12:43:45.115Z,6.95
2019-05-22T12:46:17.155Z,6.60
2019-05-22T12:48:48.334Z,5.50
2019-05-22T12:51:19.592Z,7.95
2019-05-22T12:53:50.190Z,8.13
2019-05-22T12:56:21.005Z,9.43
2019-05-22T12:58:52.103Z,7.37
2019-05-22T13:01:23.923Z,8.65
2019-05-22T13:03:57.015Z,7.37
2019-05-22T13:06:28.263Z,5.95
2019-05-22T13:09:00.335Z,12.05
2019-05-22T13:11:31.080Z,10.15
2019-05-22T13:14:01.621Z,8.08
2019-05-22T13:16:33.270Z,6.05
2019-05-22T13:19:03.928Z,7.47
2019-05-22T13:21:36.333Z,11.50
2019-05-22T13:24:22.015Z,6.47
2019-05-22T13:26:53.014Z,7.47
2019-05-22T13:29:25.531Z,8.55
2019-05-22T13:31:57.808Z,10.43
2019-05-22T13:34:29.057Z,8.23
2019-05-22T13:36:59.947Z,7.83
2019-05-22T13:39:31.220Z,10.08
2019-05-22T13:42:01.639Z,7.72
2019-05-22T13:44:32.901Z,7.75
2019-05-22T13:47:05.224Z,8.33
2019-05-22T13:49:38.427Z,18.75
2019-05-22T13:52:09.034Z,7.60
2019-05-22T13:54:40.344Z,14.13
2019-05-22T13:57:11.267Z,10.53
2019-05-22T13:59:41.749Z,13.98
2019-05-22T14:02:12.475Z,13.10
2019-05-22T14:04:44.245Z,10.38
2019-05-22T14:07:14.861Z,11.80
2019-05-22T14:09:45.475Z,13.13
2019-05-22T14:12:16.191Z,17.40
2019-05-22T14:14:46.689Z,13.50
2019-05-22T14:17:17.745Z,14.00
2019-05-22T14:19:49.141Z,13.13
2019-05-22T14:22:19.650Z,13.80
2019-05-22T14:24:50.506Z,11.60
2019-05-22T14:27:21.339Z,11.55
2019-05-22T14:29:52.326Z,13.30
2019-05-22T14:32:30.123Z,10.30
2019-05-22T14:34:54.835Z,7.78
2019-05-22T14:37:25.327Z,9.63
2019-05-22T14:39:55.852Z,9.48
2019-05-22T14:42:27.243Z,11.18
2019-05-22T14:44:58.238Z,11.48
2019-05-22T14:47:28.710Z,12.47
2019-05-22T14:49:59.573Z,9.95
2019-05-22T14:52:30.244Z,13.97
2019-05-22T14:55:01.028Z,10.32
2019-05-22T14:57:31.750Z,11.85
2019-05-22T15:00:02.427Z,13.95
2019-05-22T15:02:32.852Z,11.85
2019-05-22T15:05:03.731Z,11.10
2019-05-22T15:07:34.171Z,9.33
2019-05-22T15:10:05.555Z,7.20
2019-05-22T15:12:36.927Z,6.67
2019-05-22T15:15:09.603Z,8.58
2019-05-22T15:17:40.391Z,10.30
2019-05-22T15:20:14.283Z,8.05
2019-05-22T15:22:44.867Z,9.48
2019-05-22T15:25:16.258Z,9.30
2019-05-22T15:27:47.180Z,14.87
2019-05-22T15:30:19.627Z,9.03
2019-05-22T15:32:50.103Z,11.40
2019-05-22T15:35:20.919Z,10.45
2019-05-22T15:37:51.392Z,8.83
2019-05-22T15:40:24.285Z,9.15
2019-05-22T15:42:55.048Z,8.48
2019-05-22T15:45:27.403Z,9.58
2019-05-22T15:48:01.160Z,9.35
2019-05-22T15:50:33.926Z,8.23
2019-05-22T15:53:11.335Z,9.00
2019-05-22T15:55:42.287Z,8.60
2019-05-22T15:58:15.347Z,7.95
2019-05-22T16:00:47.375Z,6.05
2019-05-22T16:03:21.095Z,36.33
2019-05-22T16:05:54.143Z,21.20
2019-05-22T16:08:25.241Z,11.12
2019-05-22T16:11:00.189Z,10.60
2019-05-22T16:13:32.640Z,10.58
2019-05-22T16:16:05.624Z,15.15
2019-05-22T16:18:37.230Z,7.55
2019-05-22T16:21:10.038Z,7.87
2019-05-22T16:23:40.849Z,8.10
2019-05-22T16:26:12.639Z,8.70
2019-05-22T16:28:45.840Z,10.03
2019-05-22T16:31:18.030Z,8.73
2019-05-22T16:33:49.404Z,10.15
2019-05-22T16:36:20.974Z,8.13
2019-05-22T16:38:51.816Z,9.83
2019-05-22T16:41:24.371Z,8.20
2019-05-22T16:43:55.960Z,8.47
2019-05-22T16:46:27.059Z,14.33
2019-05-22T16:48:58.779Z,8.43
2019-05-22T16:51:31.423Z,9.08
2019-05-22T16:54:05.294Z,8.50
2019-05-22T16:56:36.022Z,7.93
2019-05-22T16:59:10.156Z,8.48
2019-05-22T17:01:57.726Z,9.03
2019-05-22T17:04:14.752Z,8.73
2019-05-22T17:06:46.163Z,9.58
2019-05-22T17:09:18.849Z,9.10
2019-05-22T17:11:49.640Z,9.05
2019-05-22T17:14:21.106Z,9.50
2019-05-22T17:16:52.589Z,8.87
2019-05-22T17:19:27.626Z,8.60
2019-05-22T17:21:56.704Z,8.27
2019-05-22T17:24:27.916Z,11.87
2019-05-22T17:26:58.312Z,9.57
2019-05-22T17:29:30.052Z,8.57
2019-05-22T17:32:00.760Z,9.47
2019-05-22T17:34:38.556Z,11.47
2019-05-22T17:37:18.165Z,8.97
2019-05-22T17:39:50.870Z,8.73
2019-05-22T17:42:25.009Z,8.30
2019-05-22T17:44:59.145Z,8.40
2019-05-22T17:47:31.916Z,8.23
2019-05-22T17:50:25.416Z,7.67
2019-05-22T17:52:42.592Z,8.73
2019-05-22T17:55:14.968Z,5.83
2019-05-22T17:57:45.527Z,6.60
2019-05-22T18:00:38.538Z,5.97
2019-05-22T18:03:09.892Z,6.50
2019-05-22T18:05:41.153Z,7.23
2019-05-22T18:08:12.277Z,6.67
2019-05-22T18:10:46.011Z,7.83
2019-05-22T18:13:17.104Z,7.33
2019-05-22T18:15:47.617Z,6.90
2019-05-22T18:18:18.582Z,5.57
2019-05-22T18:20:49.914Z,10.40
2019-05-22T18:23:20.504Z,6.40
2019-05-22T18:25:50.904Z,5.83
2019-05-22T18:28:22.598Z,7.40
2019-05-22T18:30:53.588Z,8.27
2019-05-22T18:33:24.271Z,6.20
2019-05-22T18:35:54.872Z,6.17
2019-05-22T18:38:25.535Z,6.80
2019-05-22T18:40:56.462Z,7.07
2019-05-22T18:43:26.947Z,6.63
2019-05-22T18:45:57.772Z,5.23
2019-05-22T18:48:28.769Z,5.70
2019-05-22T18:50:59.199Z,6.63
2019-05-22T18:53:29.997Z,7.53
2019-05-22T18:56:00.551Z,6.63
2019-05-22T18:58:31.331Z,6.63
2019-05-22T19:01:01.718Z,9.60
2019-05-22T19:03:32.319Z,6.93
2019-05-22T19:06:04.129Z,6.57
2019-05-22T19:08:34.547Z,5.93
2019-05-22T19:11:04.964Z,6.87
2019-05-22T19:13:39.019Z,5.90
2019-05-22T19:16:09.994Z,6.40
2019-05-22T19:18:40.688Z,5.93
2019-05-22T19:21:11.583Z,5.80
2019-05-22T19:23:42.171Z,5.27
2019-05-22T19:26:12.639Z,5.60
2019-05-22T19:28:44.649Z,8.27
2019-05-22T19:31:15.211Z,6.53
2019-05-22T19:33:45.943Z,6.93
2019-05-22T19:36:16.442Z,6.83
2019-05-22T19:38:47.979Z,5.83
2019-05-22T19:41:18.600Z,7.05
2019-05-22T19:43:49.675Z,6.90
2019-05-22T19:46:20.573Z,9.87
2019-05-22T19:48:51.406Z,8.10
2019-05-22T19:51:22.447Z,14.27
2019-05-22T19:53:53.115Z,7.83
2019-05-22T19:56:24.145Z,8.43
2019-05-22T19:58:54.696Z,6.83
2019-05-22T20:01:26.179Z,7.60
2019-05-22T20:03:56.982Z,8.80
2019-05-22T20:06:28.094Z,6.70
2019-05-22T20:08:59.099Z,8.67
2019-05-22T20:11:29.921Z,9.47
2019-05-22T20:14:01.939Z,10.40
2019-05-22T20:16:32.719Z,8.63
2019-05-22T20:19:04.333Z,12.17
2019-05-22T20:21:35.561Z,9.27
2019-05-22T20:24:06.723Z,9.07
2019-05-22T20:26:37.419Z,7.20
2019-05-22T20:29:08.515Z,8.07
2019-05-22T20:31:38.941Z,9.83
2019-05-22T20:34:09.566Z,7.97
2019-05-22T20:36:40.550Z,9.40
2019-05-22T20:39:14.755Z,7.53
2019-05-22T20:41:45.389Z,9.87
2019-05-22T20:44:16.583Z,9.90
2019-05-22T20:46:48.756Z,7.77
2019-05-22T20:49:22.866Z,8.20
2019-05-22T20:51:53.687Z,10.03
2019-05-22T20:54:24.585Z,8.40
2019-05-22T20:56:57.020Z,9.87
2019-05-22T20:59:28.684Z,7.70
2019-05-22T21:01:59.519Z,9.00
2019-05-22T21:04:30.388Z,9.50
2019-05-22T21:07:05.399Z,8.28
2019-05-22T21:09:35.971Z,10.83
2019-05-22T21:12:08.875Z,10.33
2019-05-22T21:14:39.695Z,10.30
2019-05-22T21:17:10.486Z,11.27
2019-05-22T21:19:42.976Z,8.70
2019-05-22T21:22:17.447Z,8.33
2019-05-22T21:24:50.021Z,10.73
2019-05-22T21:27:21.374Z,9.57
2019-05-22T21:29:53.439Z,11.37
2019-05-22T21:32:24.403Z,9.90
2019-05-22T21:34:56.585Z,11.37
2019-05-22T21:37:27.463Z,9.63
2019-05-22T21:39:59.343Z,7.60
2019-05-22T21:42:30.991Z,9.00
2019-05-22T21:45:01.688Z,8.20
2019-05-22T21:47:33.415Z,8.43
2019-05-22T21:50:04.911Z,11.30
2019-05-22T21:52:36.708Z,11.80
2019-05-22T21:55:09.532Z,7.83
2019-05-22T21:57:40.510Z,10.87
2019-05-22T22:00:16.663Z,8.85
2019-05-22T22:02:49.906Z,9.13
2019-05-22T22:05:20.875Z,7.40
2019-05-22T22:07:51.655Z,8.27
2019-05-22T22:10:22.348Z,7.20
2019-05-22T22:12:54.264Z,5.93
2019-05-22T22:15:25.942Z,6.50
2019-05-22T22:17:56.799Z,7.97
2019-05-22T22:20:28.292Z,5.30
2019-05-22T22:22:58.799Z,6.53
2019-05-22T22:25:29.459Z,5.63
2019-05-22T22:28:01.081Z,4.53
2019-05-22T22:30:38.551Z,5.23
2019-05-22T22:33:11.851Z,4.37
2019-05-22T22:35:42.820Z,4.77
2019-05-22T22:38:13.870Z,4.17
2019-05-22T22:40:44.494Z,6.53
2019-05-22T22:43:15.364Z,7.13
2019-05-22T22:45:56.703Z,5.43
2019-05-22T22:48:32.038Z,5.10
2019-05-22T22:51:03.455Z,7.70
2019-05-22T22:53:34.422Z,4.20
2019-05-22T22:56:05.991Z,5.80
2019-05-22T22:58:37.183Z,4.53
2019-05-22T23:01:10.624Z,7.33
2019-05-22T23:03:45.329Z,5.20
2019-05-22T23:06:15.991Z,4.23
2019-05-22T23:08:47.314Z,4.70
2019-05-22T23:11:19.298Z,7.37
2019-05-22T23:13:50.985Z,4.13
2019-05-22T23:16:23.454Z,4.47
2019-05-22T23:19:38.172Z,4.30
2019-05-22T23:22:12.608Z,5.70
2019-05-22T23:24:44.322Z,5.80
2019-05-22T23:27:15.209Z,3.97
2019-05-22T23:29:46.194Z,6.13
2019-05-22T23:32:18.633Z,7.30
2019-05-22T23:34:50.035Z,5.63
2019-05-22T23:37:22.379Z,6.80
2019-05-22T23:39:55.991Z,6.43
2019-05-22T23:42:33.268Z,5.63
2019-05-22T23:45:07.121Z,6.93
2019-05-22T23:47:53.487Z,7.57
2019-05-22T23:50:24.206Z,6.20
2019-05-22T23:52:54.732Z,8.10
2019-05-22T23:55:25.470Z,8.60
2019-05-22T23:57:56.174Z,11.40
